createdAt,value
2019-05-26T00:00:54.941Z,85.00
2019-05-26T00:01:54.851Z,85.00
2019-05-26T00:02:54.839Z,85.10
2019-05-26T00:03:54.854Z,85.21
2019-05-26T00:04:54.818Z,85.10
2019-05-26T00:05:54.867Z,85.00
2019-05-26T00:06:54.801Z,85.00
2019-05-26T00:07:54.769Z,85.10
2019-05-26T00:08:54.789Z,85.21
2019-05-26T00:09:54.767Z,85.45
2019-05-26T00:10:54.755Z,85.55
2019-05-26T00:11:54.747Z,85.65
2019-05-26T00:12:54.737Z,85.75
2019-05-26T00:13:54.736Z,85.86
2019-05-26T00:14:54.715Z,85.96
2019-05-26T00:15:54.685Z,86.06
2019-05-26T00:16:54.672Z,86.26
2019-05-26T00:17:54.684Z,86.47
2019-05-26T00:18:54.687Z,86.77
2019-05-26T00:19:54.647Z,86.77
2019-05-26T00:20:54.653Z,86.98
2019-05-26T00:21:54.623Z,86.98
2019-05-26T00:22:54.626Z,87.08
2019-05-26T00:23:56.370Z,87.08
2019-05-26T00:24:54.581Z,87.08
2019-05-26T00:25:54.592Z,87.08
2019-05-26T00:26:54.588Z,86.88
2019-05-26T00:27:54.578Z,86.77
2019-05-26T00:28:54.573Z,86.88
2019-05-26T00:29:54.557Z,86.98
2019-05-26T00:30:54.540Z,86.98
2019-05-26T00:31:54.525Z,86.98
2019-05-26T00:32:54.510Z,86.88
2019-05-26T00:33:54.548Z,86.88
2019-05-26T00:34:54.488Z,87.08
2019-05-26T00:35:54.488Z,87.08
2019-05-26T00:36:54.462Z,87.08
2019-05-26T00:37:54.459Z,87.18
2019-05-26T00:38:54.496Z,87.18
2019-05-26T00:39:54.429Z,87.29
2019-05-26T00:40:54.427Z,87.29
2019-05-26T00:41:54.405Z,87.29
2019-05-26T00:42:54.415Z,87.18
2019-05-26T00:43:54.414Z,86.98
2019-05-26T00:44:54.386Z,86.98
2019-05-26T00:45:54.363Z,86.88
2019-05-26T00:46:54.352Z,86.88
2019-05-26T00:47:54.342Z,86.77
2019-05-26T00:48:54.353Z,86.88
2019-05-26T00:49:54.356Z,86.88
2019-05-26T00:50:54.343Z,86.88
2019-05-26T00:51:54.341Z,86.88
2019-05-26T00:52:56.785Z,86.77
2019-05-26T00:53:54.340Z,86.67
2019-05-26T00:54:54.271Z,86.67
2019-05-26T00:55:54.259Z,86.67
2019-05-26T00:56:54.287Z,86.77
2019-05-26T00:57:54.252Z,86.77
2019-05-26T00:58:54.237Z,86.88
2019-05-26T00:59:54.208Z,86.88
2019-05-26T01:00:54.208Z,86.98
2019-05-26T01:01:54.268Z,87.12
2019-05-26T01:02:54.182Z,87.32
2019-05-26T01:03:54.187Z,87.43
2019-05-26T01:04:54.198Z,87.63
2019-05-26T01:05:54.148Z,87.73
2019-05-26T01:06:54.135Z,87.84
2019-05-26T01:08:05.813Z,87.94
2019-05-26T01:08:55.124Z,87.94
2019-05-26T01:09:54.126Z,87.94
2019-05-26T01:10:54.186Z,88.04
2019-05-26T01:11:54.084Z,88.14
2019-05-26T01:12:54.074Z,88.14
2019-05-26T01:13:54.073Z,88.24
2019-05-26T01:14:54.052Z,88.24
2019-05-26T01:15:54.052Z,88.24
2019-05-26T01:16:56.046Z,88.35
2019-05-26T01:17:54.035Z,88.45
2019-05-26T01:18:54.031Z,88.59
2019-05-26T01:19:54.022Z,88.70
2019-05-26T01:20:53.989Z,88.70
2019-05-26T01:21:54.001Z,88.70
2019-05-26T01:22:54.101Z,88.70
2019-05-26T01:23:53.982Z,88.70
2019-05-26T01:24:53.948Z,88.70
2019-05-26T01:25:53.928Z,89.00
2019-05-26T01:26:53.961Z,89.00
2019-05-26T01:27:53.908Z,89.11
2019-05-26T01:28:53.937Z,89.20
2019-05-26T01:29:53.927Z,89.20
2019-05-26T01:30:53.885Z,89.20
2019-05-26T01:31:53.875Z,89.20
2019-05-26T01:32:54.408Z,89.31
2019-05-26T01:33:53.855Z,89.20
2019-05-26T01:34:53.846Z,89.11
2019-05-26T01:35:53.823Z,89.11
2019-05-26T01:36:53.827Z,89.11
2019-05-26T01:37:53.804Z,89.20
2019-05-26T01:38:53.802Z,89.20
2019-05-26T01:39:53.861Z,89.20
2019-05-26T01:40:53.782Z,89.31
2019-05-26T01:41:53.762Z,89.51
2019-05-26T01:42:53.777Z,89.51
2019-05-26T01:43:53.877Z,89.51
2019-05-26T01:44:53.759Z,89.47
2019-05-26T01:45:53.732Z,89.47
2019-05-26T01:46:53.709Z,89.37
2019-05-26T01:47:53.726Z,89.26
2019-05-26T01:48:53.709Z,89.17
2019-05-26T01:49:53.719Z,89.17
2019-05-26T01:50:53.668Z,89.17
2019-05-26T01:51:53.677Z,89.17
2019-05-26T01:52:53.648Z,89.26
2019-05-26T01:53:53.638Z,89.17
2019-05-26T01:54:53.686Z,89.06
2019-05-26T01:55:53.637Z,89.06
2019-05-26T01:56:53.616Z,88.96
2019-05-26T01:57:53.625Z,88.76
2019-05-26T01:58:53.575Z,88.76
2019-05-26T01:59:53.566Z,88.76
2019-05-26T02:00:53.577Z,88.65
2019-05-26T02:01:53.565Z,88.76
2019-05-26T02:02:53.536Z,88.76
2019-05-26T02:03:53.524Z,88.76
2019-05-26T02:04:53.543Z,88.65
2019-05-26T02:05:53.510Z,88.55
2019-05-26T02:06:53.515Z,88.55
2019-05-26T02:07:53.486Z,88.76
2019-05-26T02:08:53.481Z,88.85
2019-05-26T02:09:53.480Z,88.85
2019-05-26T02:10:53.470Z,88.85
2019-05-26T02:11:53.478Z,88.85
2019-05-26T02:12:53.481Z,88.85
2019-05-26T02:13:53.458Z,88.76
2019-05-26T02:14:54.194Z,88.76
2019-05-26T02:15:53.422Z,88.76
2019-05-26T02:16:53.387Z,88.55
2019-05-26T02:17:53.378Z,88.55
2019-05-26T02:18:53.435Z,88.55
2019-05-26T02:19:53.357Z,88.55
2019-05-26T02:20:53.376Z,88.55
2019-05-26T02:21:53.335Z,88.55
2019-05-26T02:22:53.325Z,88.55
2019-05-26T02:23:53.329Z,88.41
2019-05-26T02:24:53.317Z,88.55
2019-05-26T02:25:53.322Z,88.31
2019-05-26T02:26:53.274Z,88.31
2019-05-26T02:27:53.273Z,88.31
2019-05-26T02:28:53.276Z,88.31
2019-05-26T02:29:53.242Z,88.31
2019-05-26T02:30:53.262Z,88.20
2019-05-26T02:31:53.228Z,88.10
2019-05-26T02:32:53.223Z,88.20
2019-05-26T02:33:53.247Z,88.10
2019-05-26T02:34:53.225Z,88.20
2019-05-26T02:35:53.200Z,88.31
2019-05-26T02:36:53.192Z,88.20
2019-05-26T02:37:53.162Z,88.20
2019-05-26T02:39:01.887Z,88.20
2019-05-26T02:39:54.170Z,88.20
2019-05-26T02:40:53.167Z,88.31
2019-05-26T02:41:53.133Z,88.31
2019-05-26T02:42:53.129Z,88.31
2019-05-26T02:43:53.103Z,88.41
2019-05-26T02:44:53.091Z,88.51
2019-05-26T02:45:53.098Z,88.61
2019-05-26T02:46:53.081Z,88.51
2019-05-26T02:47:53.055Z,88.61
2019-05-26T02:48:53.060Z,88.61
2019-05-26T02:49:53.046Z,88.61
2019-05-26T02:50:53.045Z,88.61
2019-05-26T02:51:53.045Z,88.51
2019-05-26T02:52:53.052Z,88.61
2019-05-26T02:53:53.000Z,88.71
2019-05-26T02:54:52.992Z,88.71
2019-05-26T02:55:52.975Z,88.61
2019-05-26T02:56:52.971Z,88.61
2019-05-26T02:57:52.961Z,88.61
2019-05-26T02:58:52.952Z,88.71
2019-05-26T02:59:52.964Z,88.71
2019-05-26T03:00:52.966Z,88.71
2019-05-26T03:02:03.042Z,88.71
2019-05-26T03:02:53.914Z,88.67
2019-05-26T03:03:52.892Z,88.57
2019-05-26T03:04:52.883Z,88.47
2019-05-26T03:05:52.894Z,88.47
2019-05-26T03:06:52.892Z,88.57
2019-05-26T03:07:52.859Z,88.67
2019-05-26T03:08:52.837Z,88.78
2019-05-26T03:09:52.825Z,88.78
2019-05-26T03:10:52.847Z,88.88
2019-05-26T03:11:52.822Z,88.88
2019-05-26T03:12:52.796Z,88.88
2019-05-26T03:13:52.775Z,88.98
2019-05-26T03:14:52.786Z,89.08
2019-05-26T03:15:52.808Z,88.98
2019-05-26T03:16:52.744Z,88.98
2019-05-26T03:17:52.778Z,89.08
2019-05-26T03:18:52.724Z,89.18
2019-05-26T03:19:52.734Z,89.18
2019-05-26T03:20:52.721Z,89.18
2019-05-26T03:21:52.690Z,89.28
2019-05-26T03:22:52.693Z,89.28
2019-05-26T03:23:52.701Z,89.28
2019-05-26T03:24:52.680Z,89.28
2019-05-26T03:25:52.700Z,89.39
2019-05-26T03:26:52.639Z,89.34
2019-05-26T03:27:52.658Z,89.25
2019-05-26T03:28:52.637Z,89.25
2019-05-26T03:29:52.619Z,89.25
2019-05-26T03:30:52.609Z,89.14
2019-05-26T03:31:52.589Z,89.04
2019-05-26T03:32:52.581Z,89.04
2019-05-26T03:33:52.579Z,89.04
2019-05-26T03:34:52.576Z,88.93
2019-05-26T03:35:52.577Z,88.93
2019-05-26T03:36:52.540Z,88.79
2019-05-26T03:37:52.527Z,88.69
2019-05-26T03:38:52.524Z,88.59
2019-05-26T03:39:52.497Z,88.49
2019-05-26T03:40:52.501Z,88.39
2019-05-26T03:41:52.488Z,88.39
2019-05-26T03:42:52.465Z,88.49
2019-05-26T03:43:52.473Z,88.49
2019-05-26T03:44:52.444Z,88.39
2019-05-26T03:45:52.464Z,88.28
2019-05-26T03:46:52.442Z,88.28
2019-05-26T03:47:52.443Z,88.18
2019-05-26T03:48:52.437Z,88.18
2019-05-26T03:49:52.396Z,88.14
2019-05-26T03:50:52.402Z,88.14
2019-05-26T03:51:52.404Z,88.14
2019-05-26T03:52:52.368Z,88.14
2019-05-26T03:53:52.357Z,88.14
2019-05-26T03:54:52.361Z,88.14
2019-05-26T03:55:52.351Z,87.94
2019-05-26T03:56:52.330Z,88.04
2019-05-26T03:57:52.318Z,87.94
2019-05-26T03:58:52.320Z,87.94
2019-05-26T03:59:52.321Z,87.94
2019-05-26T04:00:52.298Z,87.94
2019-05-26T04:01:57.311Z,87.79
2019-05-26T04:02:53.258Z,87.79
2019-05-26T04:03:52.261Z,87.69
2019-05-26T04:04:52.252Z,87.69
2019-05-26T04:05:52.258Z,87.59
2019-05-26T04:06:52.228Z,87.49
2019-05-26T04:07:52.218Z,87.49
2019-05-26T04:08:52.204Z,87.59
2019-05-26T04:10:03.705Z,87.49
2019-05-26T04:10:53.183Z,87.29
2019-05-26T04:11:52.181Z,87.38
2019-05-26T04:12:52.204Z,87.29
2019-05-26T04:13:52.202Z,87.29
2019-05-26T04:14:52.125Z,87.29
2019-05-26T04:15:52.123Z,87.14
2019-05-26T04:16:52.104Z,87.18
2019-05-26T04:17:52.095Z,87.18
2019-05-26T04:18:52.137Z,87.24
2019-05-26T04:19:52.072Z,87.24
2019-05-26T04:20:52.063Z,87.24
2019-05-26T04:21:52.070Z,87.24
2019-05-26T04:22:52.042Z,87.24
2019-05-26T04:23:52.049Z,87.24
2019-05-26T04:24:52.031Z,87.35
2019-05-26T04:25:52.020Z,87.24
2019-05-26T04:26:52.000Z,87.24
2019-05-26T04:27:51.990Z,87.24
2019-05-26T04:28:52.015Z,87.14
2019-05-26T04:29:51.975Z,87.14
2019-05-26T04:30:51.970Z,87.24
2019-05-26T04:31:51.957Z,87.24
2019-05-26T04:32:51.936Z,87.35
2019-05-26T04:33:51.930Z,87.45
2019-05-26T04:34:51.914Z,87.45
2019-05-26T04:35:51.936Z,87.65
2019-05-26T04:36:51.898Z,87.61
2019-05-26T04:37:51.915Z,87.61
2019-05-26T04:38:51.889Z,87.61
2019-05-26T04:39:51.874Z,87.51
2019-05-26T04:40:51.852Z,87.41
2019-05-26T04:41:51.858Z,87.30
2019-05-26T04:42:51.842Z,87.30
2019-05-26T04:43:51.824Z,87.20
2019-05-26T04:44:51.818Z,87.10
2019-05-26T04:45:51.813Z,87.00
2019-05-26T04:46:51.809Z,86.96
2019-05-26T04:47:51.846Z,86.86
2019-05-26T04:48:51.770Z,86.86
2019-05-26T04:49:51.779Z,86.76
2019-05-26T04:50:51.760Z,86.76
2019-05-26T04:51:51.742Z,86.65
2019-05-26T04:53:05.573Z,86.51
2019-05-26T04:53:52.708Z,86.35
2019-05-26T04:54:51.729Z,86.21
2019-05-26T04:55:51.689Z,86.00
2019-05-26T04:56:51.677Z,85.90
2019-05-26T04:57:51.667Z,85.80
2019-05-26T04:58:51.670Z,85.70
2019-05-26T04:59:51.692Z,85.60
2019-05-26T05:00:51.651Z,85.60
2019-05-26T05:01:51.627Z,85.70
2019-05-26T05:02:51.614Z,85.80
2019-05-26T05:03:51.594Z,85.80
2019-05-26T05:04:51.679Z,85.80
2019-05-26T05:05:51.593Z,85.80
2019-05-26T05:06:51.567Z,85.80
2019-05-26T05:07:51.565Z,85.70
2019-05-26T05:08:51.569Z,85.60
2019-05-26T05:09:51.531Z,85.55
2019-05-26T05:10:51.540Z,85.55
2019-05-26T05:11:51.510Z,85.46
2019-05-26T05:12:51.501Z,85.35
2019-05-26T05:13:51.490Z,85.25
2019-05-26T05:14:51.540Z,85.15
2019-05-26T05:15:51.495Z,85.05
2019-05-26T05:16:51.478Z,85.15
2019-05-26T05:17:51.489Z,84.95
2019-05-26T05:18:51.447Z,84.80
2019-05-26T05:19:51.429Z,84.80
2019-05-26T05:20:51.438Z,84.80
2019-05-26T05:21:51.410Z,84.80
2019-05-26T05:22:51.406Z,84.70
2019-05-26T05:23:51.386Z,84.70
2019-05-26T05:24:51.394Z,84.70
2019-05-26T05:25:51.376Z,84.70
2019-05-26T05:26:51.358Z,84.60
2019-05-26T05:27:51.362Z,84.60
2019-05-26T05:28:51.326Z,84.50
2019-05-26T05:29:51.315Z,84.40
2019-05-26T05:30:51.334Z,84.26
2019-05-26T05:31:51.304Z,84.26
2019-05-26T05:32:51.303Z,84.26
2019-05-26T05:33:51.353Z,84.26
2019-05-26T05:34:51.285Z,84.26
2019-05-26T05:35:51.252Z,84.26
2019-05-26T05:36:51.254Z,84.26
2019-05-26T05:37:51.241Z,84.26
2019-05-26T05:38:51.231Z,84.26
2019-05-26T05:39:51.239Z,84.26
2019-05-26T05:40:59.366Z,84.36
2019-05-26T05:41:52.203Z,84.26
2019-05-26T05:42:51.178Z,84.26
2019-05-26T05:43:51.179Z,84.16
2019-05-26T05:44:51.150Z,84.16
2019-05-26T05:45:51.143Z,84.16
2019-05-26T05:46:51.138Z,84.05
2019-05-26T05:47:51.127Z,83.91
2019-05-26T05:48:51.164Z,83.71
2019-05-26T05:49:51.107Z,83.40
2019-05-26T05:50:51.188Z,82.96
2019-05-26T05:51:51.125Z,82.52
2019-05-26T05:52:51.087Z,73.88
2019-05-26T05:53:51.065Z,67.55
2019-05-26T05:54:51.085Z,61.77
2019-05-26T05:55:51.034Z,60.33
2019-05-26T05:56:51.025Z,62.99
2019-05-26T05:57:51.012Z,66.03
2019-05-26T05:58:51.023Z,68.21
2019-05-26T05:59:50.993Z,69.89
2019-05-26T06:00:50.983Z,71.13
2019-05-26T06:01:50.990Z,71.97
2019-05-26T06:02:50.953Z,72.81
2019-05-26T06:03:50.972Z,73.66
2019-05-26T06:04:50.951Z,74.46
2019-05-26T06:05:50.931Z,74.90
2019-05-26T06:06:50.912Z,75.41
2019-05-26T06:07:50.921Z,75.85
2019-05-26T06:08:51.078Z,76.15
2019-05-26T06:09:50.891Z,76.22
2019-05-26T06:10:50.873Z,75.92
2019-05-26T06:11:54.435Z,75.71
2019-05-26T06:12:51.849Z,75.61
2019-05-26T06:13:50.866Z,75.27
2019-05-26T06:14:50.851Z,75.07
2019-05-26T06:15:51.434Z,74.66
2019-05-26T06:16:50.808Z,74.46
2019-05-26T06:17:50.801Z,74.46
2019-05-26T06:18:50.809Z,73.82
2019-05-26T06:19:50.777Z,74.06
2019-05-26T06:20:50.778Z,74.13
2019-05-26T06:21:50.848Z,73.82
2019-05-26T06:22:50.756Z,73.52
2019-05-26T06:23:50.886Z,73.08
2019-05-26T06:24:50.727Z,72.68
2019-05-26T06:25:50.755Z,72.58
2019-05-26T06:26:50.719Z,72.44
2019-05-26T06:27:50.685Z,72.00
2019-05-26T06:28:52.444Z,69.56
2019-05-26T06:29:58.859Z,65.73
2019-05-26T06:30:51.685Z,65.73
2019-05-26T06:31:50.802Z,66.37
2019-05-26T06:32:50.653Z,67.00
2019-05-26T06:33:50.622Z,67.64
2019-05-26T06:34:50.633Z,67.94
2019-05-26T06:35:50.603Z,68.58
2019-05-26T06:36:50.596Z,68.88
2019-05-26T06:37:50.582Z,68.91
2019-05-26T06:38:50.582Z,69.32
2019-05-26T06:39:50.624Z,69.95
2019-05-26T06:40:50.579Z,70.79
2019-05-26T06:41:50.543Z,70.79
2019-05-26T06:42:50.531Z,70.69
2019-05-26T06:43:50.520Z,71.00
2019-05-26T06:44:53.870Z,71.10
2019-05-26T06:45:50.509Z,71.06
2019-05-26T06:46:50.492Z,70.86
2019-05-26T06:47:50.490Z,70.12
2019-05-26T06:48:50.480Z,70.26
2019-05-26T06:49:50.481Z,69.82
2019-05-26T06:50:50.457Z,69.72
2019-05-26T06:51:50.436Z,69.92
2019-05-26T06:52:50.427Z,70.36
2019-05-26T06:53:50.408Z,70.22
2019-05-26T06:54:50.397Z,70.12
2019-05-26T06:55:50.396Z,69.92
2019-05-26T06:56:50.386Z,70.12
2019-05-26T06:57:50.384Z,70.12
2019-05-26T06:58:50.359Z,70.12
2019-05-26T06:59:50.345Z,69.92
2019-05-26T07:00:50.356Z,70.53
2019-05-26T07:01:50.326Z,70.86
2019-05-26T07:02:50.335Z,71.26
2019-05-26T07:03:50.316Z,71.60
2019-05-26T07:04:50.294Z,71.77
2019-05-26T07:05:50.294Z,71.47
2019-05-26T07:06:50.274Z,71.26
2019-05-26T07:07:50.252Z,70.73
2019-05-26T07:08:50.252Z,70.86
2019-05-26T07:09:50.257Z,71.26
2019-05-26T07:10:50.231Z,71.33
2019-05-26T07:11:58.842Z,71.33
2019-05-26T07:12:51.214Z,71.03
2019-05-26T07:13:50.231Z,71.23
2019-05-26T07:14:50.188Z,71.23
2019-05-26T07:15:50.190Z,71.57
2019-05-26T07:16:50.167Z,71.87
2019-05-26T07:17:50.150Z,72.20
2019-05-26T07:18:50.150Z,73.15
2019-05-26T07:19:50.139Z,73.85
2019-05-26T07:20:50.136Z,73.85
2019-05-26T07:21:50.113Z,74.05
2019-05-26T07:22:50.147Z,74.16
2019-05-26T07:23:50.087Z,74.36
2019-05-26T07:24:50.077Z,74.26
2019-05-26T07:25:50.078Z,74.36
2019-05-26T07:26:50.077Z,74.36
2019-05-26T07:27:50.470Z,74.12
2019-05-26T07:28:50.039Z,73.82
2019-05-26T07:29:50.026Z,73.72
2019-05-26T07:30:50.036Z,73.18
2019-05-26T07:31:50.014Z,72.64
2019-05-26T07:32:49.999Z,72.34
2019-05-26T07:33:49.983Z,72.34
2019-05-26T07:34:49.996Z,71.80
2019-05-26T07:35:50.128Z,71.16
2019-05-26T07:36:49.955Z,70.66
2019-05-26T07:37:49.941Z,70.12
2019-05-26T07:38:49.927Z,69.62
2019-05-26T07:39:49.934Z,68.78
2019-05-26T07:40:49.923Z,68.05
2019-05-26T07:42:08.282Z,67.51
2019-05-26T07:42:50.883Z,67.31
2019-05-26T07:43:49.876Z,67.31
2019-05-26T07:44:49.863Z,67.61
2019-05-26T07:45:49.872Z,67.61
2019-05-26T07:46:49.853Z,67.21
2019-05-26T07:47:49.840Z,66.78
2019-05-26T07:48:49.820Z,66.08
2019-05-26T07:49:49.810Z,65.71
2019-05-26T07:50:49.819Z,65.21
2019-05-26T07:51:49.792Z,64.91
2019-05-26T07:52:49.786Z,65.11
2019-05-26T07:53:49.773Z,65.34
2019-05-26T07:54:49.757Z,66.08
2019-05-26T07:55:49.766Z,66.47
2019-05-26T07:56:49.739Z,66.67
2019-05-26T07:57:49.727Z,66.35
2019-05-26T07:58:49.711Z,65.74
2019-05-26T07:59:49.707Z,65.31
2019-05-26T08:00:49.706Z,65.11
2019-05-26T08:01:49.686Z,64.81
2019-05-26T08:02:49.702Z,65.01
2019-05-26T08:03:49.659Z,65.21
2019-05-26T08:04:49.646Z,65.71
2019-05-26T08:05:49.645Z,65.91
2019-05-26T08:06:49.637Z,65.71
2019-05-26T08:07:49.615Z,65.51
2019-05-26T08:08:49.607Z,65.51
2019-05-26T08:09:49.594Z,65.61
2019-05-26T08:10:49.596Z,65.41
2019-05-26T08:11:49.576Z,65.94
2019-05-26T08:12:49.570Z,65.94
2019-05-26T08:13:49.567Z,65.64
2019-05-26T08:14:49.543Z,65.84
2019-05-26T08:15:49.543Z,66.05
2019-05-26T08:16:49.524Z,65.71
2019-05-26T08:17:49.511Z,65.51
2019-05-26T08:18:49.502Z,65.21
2019-05-26T08:19:49.495Z,65.04
2019-05-26T08:20:49.492Z,65.04
2019-05-26T08:21:49.462Z,64.34
2019-05-26T08:22:49.460Z,64.54
2019-05-26T08:23:49.453Z,64.43
2019-05-26T08:24:49.441Z,64.04
2019-05-26T08:25:49.481Z,63.76
2019-05-26T08:26:49.420Z,63.67
2019-05-26T08:27:50.010Z,63.84
2019-05-26T08:28:49.391Z,63.00
2019-05-26T08:29:49.385Z,62.60
2019-05-26T08:30:49.389Z,62.50
2019-05-26T08:31:49.369Z,61.94
2019-05-26T08:32:49.348Z,61.71
2019-05-26T08:33:49.338Z,60.68
2019-05-26T08:34:49.328Z,58.99
2019-05-26T08:35:49.329Z,57.89
2019-05-26T08:36:49.318Z,58.39
2019-05-26T08:37:49.299Z,58.32
2019-05-26T08:38:49.296Z,58.00
2019-05-26T08:39:49.285Z,57.57
2019-05-26T08:40:49.257Z,56.84
2019-05-26T08:41:49.255Z,55.69
2019-05-26T08:42:49.268Z,55.88
2019-05-26T08:43:49.228Z,56.01
2019-05-26T08:44:49.230Z,55.91
2019-05-26T08:45:49.205Z,55.81
2019-05-26T08:46:49.209Z,53.81
2019-05-26T08:47:49.265Z,53.22
2019-05-26T08:48:49.176Z,54.29
2019-05-26T08:49:49.164Z,56.16
2019-05-26T08:50:49.162Z,57.59
2019-05-26T08:51:49.152Z,58.85
2019-05-26T08:52:49.152Z,59.68
2019-05-26T08:53:49.124Z,60.41
2019-05-26T08:54:49.124Z,60.91
2019-05-26T08:55:49.105Z,60.53
2019-05-26T08:56:49.102Z,60.64
2019-05-26T08:57:49.087Z,60.61
2019-05-26T08:58:49.082Z,60.53
2019-05-26T08:59:49.077Z,60.53
2019-05-26T09:00:49.072Z,61.04
2019-05-26T09:01:49.043Z,61.57
2019-05-26T09:02:49.031Z,60.91
2019-05-26T09:03:49.032Z,59.78
2019-05-26T09:04:49.003Z,59.48
2019-05-26T09:05:49.001Z,59.58
2019-05-26T09:06:48.980Z,58.92
2019-05-26T09:07:48.980Z,58.32
2019-05-26T09:08:48.979Z,59.58
2019-05-26T09:09:48.972Z,56.74
2019-05-26T09:10:48.939Z,52.89
2019-05-26T09:11:48.937Z,51.05
2019-05-26T09:13:00.142Z,50.55
2019-05-26T09:13:49.921Z,49.71
2019-05-26T09:14:48.908Z,49.21
2019-05-26T09:15:48.888Z,49.11
2019-05-26T09:16:48.879Z,48.79
2019-05-26T09:17:48.867Z,48.17
2019-05-26T09:18:48.858Z,47.55
2019-05-26T09:19:48.861Z,47.23
2019-05-26T09:20:48.850Z,46.42
2019-05-26T09:21:48.828Z,46.22
2019-05-26T09:22:48.821Z,46.93
2019-05-26T09:23:48.816Z,48.52
2019-05-26T09:24:48.798Z,50.68
2019-05-26T09:25:48.800Z,52.34
2019-05-26T09:26:48.776Z,53.59
2019-05-26T09:27:48.786Z,54.54
2019-05-26T09:28:48.757Z,55.99
2019-05-26T09:29:48.755Z,56.79
2019-05-26T09:30:48.737Z,57.02
2019-05-26T09:31:48.720Z,57.32
2019-05-26T09:32:48.716Z,57.45
2019-05-26T09:33:48.697Z,58.45
2019-05-26T09:34:48.695Z,58.35
2019-05-26T09:35:48.686Z,58.78
2019-05-26T09:36:48.675Z,58.55
2019-05-26T09:37:48.687Z,58.52
2019-05-26T09:38:48.654Z,57.95
2019-05-26T09:39:48.636Z,57.22
2019-05-26T09:40:48.623Z,57.32
2019-05-26T09:41:48.641Z,57.19
2019-05-26T09:42:48.612Z,57.22
2019-05-26T09:43:48.593Z,56.82
2019-05-26T09:44:48.583Z,57.02
2019-05-26T09:45:48.573Z,56.70
2019-05-26T09:46:48.574Z,56.27
2019-05-26T09:47:48.552Z,55.84
2019-05-26T09:48:48.540Z,55.77
2019-05-26T09:49:48.541Z,55.97
2019-05-26T09:50:48.531Z,56.16
2019-05-26T09:51:48.511Z,55.49
2019-05-26T09:52:48.501Z,55.92
2019-05-26T09:54:00.790Z,56.32
2019-05-26T09:54:49.480Z,56.42
2019-05-26T09:55:48.470Z,56.95
2019-05-26T09:56:48.458Z,57.24
2019-05-26T09:57:48.448Z,57.15
2019-05-26T09:58:48.449Z,56.82
2019-05-26T09:59:48.428Z,56.79
2019-05-26T10:00:48.469Z,56.20
2019-05-26T10:01:48.408Z,55.66
2019-05-26T10:02:48.398Z,55.66
2019-05-26T10:03:48.389Z,55.54
2019-05-26T10:04:48.380Z,55.14
2019-05-26T10:05:48.357Z,54.84
2019-05-26T10:06:48.359Z,54.94
2019-05-26T10:07:48.336Z,54.94
2019-05-26T10:08:48.329Z,55.07
2019-05-26T10:09:48.320Z,54.97
2019-05-26T10:10:48.318Z,55.40
2019-05-26T10:11:48.296Z,55.49
2019-05-26T10:12:48.287Z,55.79
2019-05-26T10:13:48.289Z,55.89
2019-05-26T10:14:48.277Z,55.49
2019-05-26T10:15:48.285Z,54.90
2019-05-26T10:16:48.248Z,55.12
2019-05-26T10:17:48.235Z,55.29
2019-05-26T10:18:48.248Z,54.57
2019-05-26T10:19:48.815Z,54.57
2019-05-26T10:20:48.213Z,54.47
2019-05-26T10:21:48.192Z,54.74
2019-05-26T10:22:48.184Z,54.44
2019-05-26T10:23:48.163Z,54.44
2019-05-26T10:24:48.163Z,55.04
2019-05-26T10:25:48.166Z,55.04
2019-05-26T10:26:48.134Z,55.36
2019-05-26T10:27:48.161Z,55.87
2019-05-26T10:28:48.132Z,55.66
2019-05-26T10:29:48.110Z,55.77
2019-05-26T10:30:48.105Z,55.69
2019-05-26T10:31:48.089Z,56.20
2019-05-26T10:32:48.082Z,56.29
2019-05-26T10:33:48.070Z,55.87
2019-05-26T10:34:48.053Z,55.47
2019-05-26T10:35:48.042Z,55.79
2019-05-26T10:36:48.029Z,56.20
2019-05-26T10:37:48.029Z,56.07
2019-05-26T10:38:48.009Z,55.77
2019-05-26T10:39:47.999Z,55.77
2019-05-26T10:40:47.987Z,56.07
2019-05-26T10:41:47.979Z,55.57
2019-05-26T10:42:47.975Z,55.36
2019-05-26T10:43:48.087Z,55.49
2019-05-26T10:44:47.947Z,56.09
2019-05-26T10:45:47.937Z,56.32
2019-05-26T10:46:47.935Z,56.82
2019-05-26T10:47:47.919Z,56.72
2019-05-26T10:48:47.897Z,57.02
2019-05-26T10:49:47.896Z,57.09
2019-05-26T10:50:47.889Z,56.09
2019-05-26T10:51:47.895Z,55.89
2019-05-26T10:52:47.875Z,56.16
2019-05-26T10:53:47.845Z,56.37
2019-05-26T10:54:47.837Z,55.66
2019-05-26T10:55:47.825Z,55.57
2019-05-26T10:56:47.827Z,55.34
2019-05-26T10:57:47.805Z,55.66
2019-05-26T10:58:47.805Z,55.87
2019-05-26T10:59:47.784Z,55.74
2019-05-26T11:00:47.775Z,55.04
2019-05-26T11:01:47.763Z,55.14
2019-05-26T11:02:47.770Z,55.14
2019-05-26T11:03:47.753Z,55.11
2019-05-26T11:04:47.733Z,54.89
2019-05-26T11:05:47.723Z,55.02
2019-05-26T11:06:47.710Z,55.04
2019-05-26T11:07:47.706Z,55.41
2019-05-26T11:08:47.691Z,55.34
2019-05-26T11:09:47.685Z,54.94
2019-05-26T11:10:47.661Z,55.27
2019-05-26T11:11:47.660Z,55.69
2019-05-26T11:12:47.650Z,55.89
2019-05-26T11:14:01.848Z,56.09
2019-05-26T11:14:48.629Z,56.49
2019-05-26T11:15:48.147Z,56.09
2019-05-26T11:16:47.600Z,55.89
2019-05-26T11:17:47.589Z,55.89
2019-05-26T11:18:47.615Z,55.79
2019-05-26T11:19:47.571Z,55.47
2019-05-26T11:20:47.558Z,55.04
2019-05-26T11:21:47.559Z,54.52
2019-05-26T11:22:47.537Z,54.71
2019-05-26T11:23:47.530Z,54.24
2019-05-26T11:24:47.518Z,53.84
2019-05-26T11:25:47.517Z,54.34
2019-05-26T11:26:47.497Z,54.47
2019-05-26T11:27:47.489Z,54.86
2019-05-26T11:28:47.468Z,54.69
2019-05-26T11:29:47.476Z,55.29
2019-05-26T11:30:47.454Z,55.29
2019-05-26T11:31:47.444Z,55.27
2019-05-26T11:32:47.456Z,55.14
2019-05-26T11:33:47.416Z,54.84
2019-05-26T11:35:00.682Z,54.71
2019-05-26T11:35:48.395Z,54.32
2019-05-26T11:36:47.393Z,53.79
2019-05-26T11:37:47.386Z,53.72
2019-05-26T11:38:47.375Z,53.72
2019-05-26T11:39:47.374Z,53.92
2019-05-26T11:40:47.783Z,53.79
2019-05-26T11:41:54.654Z,53.39
2019-05-26T11:42:48.323Z,53.61
2019-05-26T11:43:47.313Z,54.04
2019-05-26T11:44:47.322Z,54.32
2019-05-26T11:45:47.298Z,54.11
2019-05-26T11:46:47.282Z,53.79
2019-05-26T11:47:47.283Z,53.47
2019-05-26T11:48:47.772Z,53.36
2019-05-26T11:49:47.271Z,53.19
2019-05-26T11:50:47.240Z,53.02
2019-05-26T11:51:47.221Z,53.42
2019-05-26T11:52:47.220Z,53.81
2019-05-26T11:53:47.211Z,53.81
2019-05-26T11:54:47.220Z,53.72
2019-05-26T11:55:47.190Z,54.11
2019-05-26T11:56:47.173Z,53.61
2019-05-26T11:57:47.170Z,53.52
2019-05-26T11:58:47.160Z,53.49
2019-05-26T11:59:47.568Z,53.59
2019-05-26T12:00:47.140Z,53.49
2019-05-26T12:01:47.120Z,54.19
2019-05-26T12:02:47.114Z,54.11
2019-05-26T12:03:47.099Z,54.71
2019-05-26T12:04:47.088Z,54.49
2019-05-26T12:05:47.097Z,54.29
2019-05-26T12:06:47.093Z,53.89
2019-05-26T12:07:47.074Z,54.11
2019-05-26T12:08:47.049Z,54.32
2019-05-26T12:09:47.036Z,54.32
2019-05-26T12:10:47.034Z,54.22
2019-05-26T12:11:47.015Z,54.22
2019-05-26T12:12:47.005Z,54.61
2019-05-26T12:13:46.985Z,54.71
2019-05-26T12:14:46.985Z,54.41
2019-05-26T12:15:46.992Z,54.52
2019-05-26T12:16:46.965Z,54.41
2019-05-26T12:17:46.944Z,54.54
2019-05-26T12:18:46.944Z,54.74
2019-05-26T12:19:46.933Z,55.24
2019-05-26T12:20:46.925Z,55.24
2019-05-26T12:21:46.907Z,55.24
2019-05-26T12:22:46.893Z,55.34
2019-05-26T12:23:46.886Z,55.57
2019-05-26T12:24:46.877Z,55.64
2019-05-26T12:25:46.898Z,55.57
2019-05-26T12:26:46.854Z,56.04
2019-05-26T12:27:46.843Z,56.46
2019-05-26T12:28:46.832Z,56.46
2019-05-26T12:29:46.822Z,56.24
2019-05-26T12:30:46.831Z,55.84
2019-05-26T12:31:46.811Z,55.64
2019-05-26T12:32:46.921Z,55.21
2019-05-26T12:33:46.778Z,54.84
2019-05-26T12:34:46.778Z,54.94
2019-05-26T12:35:46.769Z,55.44
2019-05-26T12:36:46.751Z,55.14
2019-05-26T12:37:48.575Z,55.57
2019-05-26T12:38:46.720Z,56.07
2019-05-26T12:39:46.709Z,56.07
2019-05-26T12:40:46.719Z,56.09
2019-05-26T12:41:46.699Z,55.97
2019-05-26T12:42:46.689Z,55.44
2019-05-26T12:43:46.676Z,54.74
2019-05-26T12:44:49.681Z,54.84
2019-05-26T12:45:46.655Z,54.41
2019-05-26T12:46:46.637Z,54.52
2019-05-26T12:47:46.670Z,54.49
2019-05-26T12:48:46.620Z,54.29
2019-05-26T12:49:46.628Z,54.49
2019-05-26T12:50:46.596Z,54.89
2019-05-26T12:51:46.596Z,54.29
2019-05-26T12:52:46.576Z,54.27